Time;durP1;ratioP1;P1;durP2;ratioP2;P2;SDS_P1;SDS_P2;PMS_P1;PMS_P2;Temp;Humidity;BMP_temperature;BMP_pressure;BME280_temperature;BME280_humidity;BME280_pressure;Samples;Min_cycle;Max_cycle;Signal;HPM_P1;HPM_P2
2023/04/01 00:01:53;;;;;;;2.60;1.33;;;;;;;9.72;100.00;98922.06;5044058;28;20216;-73
2023/04/01 00:04:18;;;;;;;3.50;1.60;;;;;;;9.70;100.00;98922.97;5032289;28;20215;-73
2023/04/01 00:06:43;;;;;;;1.73;1.10;;;;;;;9.74;100.00;98922.00;5038693;28;20261;-72
2023/04/01 00:09:08;;;;;;;2.83;1.17;;;;;;;9.77;100.00;98919.34;5033390;28;20716;-72
2023/04/01 00:11:34;;;;;;;3.63;1.40;;;;;;;9.82;100.00;98927.81;5038735;28;20188;-73
2023/04/01 00:13:59;;;;;;;3.03;1.37;;;;;;;9.87;100.00;98925.94;5028631;28;20179;-72
2023/04/01 00:16:25;;;;;;;3.20;1.50;;;;;;;9.95;100.00;98925.72;5033627;28;20188;-72
2023/04/01 00:18:51;;;;;;;3.80;1.50;;;;;;;10.02;100.00;98921.22;5034411;28;20183;-72
2023/04/01 00:21:17;;;;;;;3.90;1.40;;;;;;;10.04;100.00;98914.28;5032973;28;20304;-72
2023/04/01 00:23:43;;;;;;;3.80;1.57;;;;;;;10.06;100.00;98915.09;5039025;28;20232;-73
2023/04/01 00:26:09;;;;;;;3.40;1.27;;;;;;;10.10;100.00;98913.25;5038945;28;20678;-72
2023/04/01 00:28:35;;;;;;;2.43;1.10;;;;;;;10.03;100.00;98923.78;5029847;28;20240;-72
2023/04/01 00:31:06;;;;;;;2.70;1.27;;;;;;;10.04;100.00;98920.31;5027642;28;20737;-72
2023/04/01 00:33:32;;;;;;;2.93;1.13;;;;;;;10.10;100.00;98919.28;5025138;28;20203;-72
2023/04/01 00:36:12;;;;;;;2.87;1.00;;;;;;;10.10;100.00;98911.53;5028357;28;20198;-72
2023/04/01 00:38:38;;;;;;;3.10;1.53;;;;;;;10.10;100.00;98914.09;5037138;28;20220;-73
2023/04/01 00:41:04;;;;;;;1.90;1.23;;;;;;;10.02;100.00;98914.34;5035192;28;20788;-73
2023/04/01 00:43:30;;;;;;;2.47;1.03;;;;;;;10.07;100.00;98919.34;5034009;28;20226;-72
2023/04/01 00:45:56;;;;;;;2.90;1.33;;;;;;;10.07;100.00;98909.03;5033898;28;20180;-72
2023/04/01 00:48:31;;;;;;;2.80;1.30;;;;;;;10.08;100.00;98900.38;5033382;28;20239;-73
2023/04/01 00:51:06;;;;;;;3.93;1.23;;;;;;;10.01;100.00;98920.38;5033493;28;20183;-72
2023/04/01 00:53:34;;;;;;;2.30;1.27;;;;;;;9.99;100.00;98914.41;5031086;28;20213;-71
2023/04/01 00:56:05;;;;;;;2.73;1.33;;;;;;;10.00;100.00;98913.53;5041487;28;20185;-71
2023/04/01 00:58:35;;;;;;;3.23;1.20;;;;;;;9.99;100.00;98919.59;5033461;28;20198;-73
2023/04/01 01:01:00;;;;;;;2.50;0.90;;;;;;;9.96;100.00;98922.25;5036460;28;20205;-73
2023/04/01 01:03:26;;;;;;;4.53;1.50;;;;;;;9.95;100.00;98920.56;5035555;28;20205;-72
2023/04/01 01:06:09;;;;;;;2.20;0.93;;;;;;;9.97;100.00;98923.94;5028325;28;20215;-72
2023/04/01 01:09:03;;;;;;;2.23;1.10;;;;;;;9.97;100.00;98917.94;5039929;28;20179;-73
2023/04/01 01:11:42;;;;;;;2.27;0.83;;;;;;;9.95;100.00;98912.78;5036044;28;20180;-72
2023/04/01 01:14:29;;;;;;;3.30;1.23;;;;;;;9.93;100.00;98908.56;5038280;28;20179;-72
2023/04/01 01:17:02;;;;;;;2.83;1.10;;;;;;;9.94;100.00;98907.69;5029596;28;20620;-74
2023/04/01 01:19:36;;;;;;;1.57;0.80;;;;;;;9.94;100.00;98897.34;5034698;28;20183;-72
2023/04/01 01:22:16;;;;;;;2.30;0.80;;;;;;;10.00;100.00;98910.94;5052215;28;20215;-72
2023/04/01 01:25:18;;;;;;;1.30;0.80;;;;;;;9.99;100.00;98913.53;5031362;28;20211;-73
2023/04/01 01:27:54;;;;;;;1.97;0.80;;;;;;;9.96;100.00;98895.56;5028032;28;20663;-73
2023/04/01 01:30:35;;;;;;;1.50;0.70;;;;;;;9.99;100.00;98906.66;5030219;28;20296;-73
2023/04/01 01:33:17;;;;;;;2.17;0.70;;;;;;;9.90;100.00;98912.94;5025193;28;20312;-73
2023/04/01 01:35:48;;;;;;;1.00;0.70;;;;;;;9.86;100.00;98902.72;5027608;28;20434;-72
2023/04/01 01:38:17;;;;;;;0.60;0.47;;;;;;;9.85;100.00;98901.88;5034601;28;20569;-73
2023/04/01 01:40:48;;;;;;;0.80;0.53;;;;;;;9.87;100.00;98894.09;5039680;28;20231;-72
2023/04/01 01:43:19;;;;;;;1.03;0.33;;;;;;;9.81;100.00;98902.88;5034548;28;20215;-73
2023/04/01 01:45:48;;;;;;;1.00;0.60;;;;;;;9.78;100.00;98905.53;5032196;28;20250;-73
2023/04/01 01:48:15;;;;;;;0.57;0.40;;;;;;;9.82;100.00;98893.38;5034646;28;20641;-74
2023/04/01 01:50:44;;;;;;;2.10;0.57;;;;;;;9.84;100.00;98901.94;5031070;28;20185;-72
2023/04/01 01:53:12;;;;;;;0.90;0.30;;;;;;;9.77;100.00;98901.25;5035392;28;20207;-73
2023/04/01 01:55:40;;;;;;;0.40;0.30;;;;;;;9.74;100.00;98893.59;5038696;28;20691;-73
2023/04/01 01:58:40;;;;;;;1.23;0.43;;;;;;;9.74;100.00;98894.44;5038820;28;21136;-73
2023/04/01 02:01:19;;;;;;;0.47;0.37;;;;;;;9.73;100.00;98895.34;5035422;28;20225;-73
2023/04/01 02:03:47;;;;;;;0.43;0.23;;;;;;;9.73;100.00;98899.63;5044972;28;20211;-73
2023/04/01 02:06:16;;;;;;;0.83;0.40;;;;;;;9.76;100.00;98892.63;5040260;28;20317;-74
2023/04/01 02:08:47;;;;;;;1.77;0.40;;;;;;;9.71;100.00;98889.34;5041667;28;20183;-73
2023/04/01 02:11:19;;;;;;;0.30;0.30;;;;;;;9.71;100.00;98884.19;5035179;28;20202;-74
2023/04/01 02:14:01;;;;;;;1.30;0.33;;;;;;;9.71;100.00;98884.19;5038035;28;20228;-73
2023/04/01 02:16:39;;;;;;;0.93;0.50;;;;;;;9.73;100.00;98874.66;5043949;28;20194;-74
2023/04/01 02:19:07;;;;;;;0.40;0.30;;;;;;;9.73;100.00;98882.41;5035619;28;20187;-72
2023/04/01 02:21:33;;;;;;;1.97;0.40;;;;;;;9.76;100.00;98881.47;5050354;28;20183;-72
2023/04/01 02:24:01;;;;;;;0.60;0.40;;;;;;;9.70;100.00;98879.91;5033811;28;20264;-73
2023/04/01 02:26:27;;;;;;;1.13;0.60;;;;;;;9.70;100.00;98873.88;5039669;28;20189;-72
2023/04/01 02:28:55;;;;;;;0.50;0.40;;;;;;;9.76;100.00;98874.56;5056375;28;20194;-73
2023/04/01 02:31:21;;;;;;;1.07;0.40;;;;;;;9.73;100.00;98863.47;5034548;28;20361;-74
2023/04/01 02:33:47;;;;;;;0.97;0.37;;;;;;;9.76;100.00;98877.13;5038676;28;20901;-72
2023/04/01 02:36:14;;;;;;;1.40;0.40;;;;;;;9.78;100.00;98879.69;5028414;28;20197;-73
2023/04/01 02:38:41;;;;;;;1.70;0.40;;;;;;;9.73;100.00;98876.38;5037647;28;20617;-73
2023/04/01 02:41:07;;;;;;;1.10;0.63;;;;;;;9.77;100.00;98872.84;5041944;28;21095;-73
2023/04/01 02:43:32;;;;;;;0.80;0.50;;;;;;;9.73;100.00;98887.59;5039102;28;20559;-72
2023/04/01 02:45:57;;;;;;;1.27;0.57;;;;;;;9.73;100.00;98879.84;5034812;28;20221;-73
2023/04/01 02:48:23;;;;;;;0.77;0.50;;;;;;;9.73;100.00;98891.88;5039169;28;20226;-73
2023/04/01 02:50:49;;;;;;;2.43;0.50;;;;;;;9.73;100.00;98881.56;5031359;28;20720;-72
2023/04/01 02:53:15;;;;;;;1.53;0.57;;;;;;;9.73;100.00;98884.13;5028598;28;20216;-73
2023/04/01 02:55:40;;;;;;;0.53;0.40;;;;;;;9.69;100.00;98888.56;5033887;28;21160;-72
2023/04/01 02:58:06;;;;;;;0.60;0.40;;;;;;;9.63;100.00;98893.88;5034751;28;21020;-72
2023/04/01 03:00:31;;;;;;;0.60;0.30;;;;;;;9.64;100.00;98882.66;5040253;28;20199;-73
2023/04/01 03:02:56;;;;;;;1.03;0.50;;;;;;;9.63;100.00;98885.28;5030969;28;20295;-72
2023/04/01 03:05:22;;;;;;;0.70;0.40;;;;;;;9.63;100.00;98891.28;5033018;28;20282;-73
2023/04/01 03:07:48;;;;;;;1.53;0.50;;;;;;;9.66;100.00;98885.22;5038581;28;20561;-72
2023/04/01 03:10:13;;;;;;;1.27;0.30;;;;;;;9.59;100.00;98897.44;5031974;28;20732;-73
2023/04/01 03:12:39;;;;;;;1.07;0.40;;;;;;;9.58;100.00;98888.84;5030587;28;20635;-72
2023/04/01 03:15:05;;;;;;;0.80;0.40;;;;;;;9.64;100.00;98887.00;5029137;28;20211;-73
2023/04/01 03:17:30;;;;;;;1.27;0.50;;;;;;;9.61;100.00;98881.00;5030632;28;20183;-74
2023/04/01 03:19:55;;;;;;;1.63;0.70;;;;;;;9.62;100.00;98889.59;5034291;28;20220;-72
2023/04/01 03:22:21;;;;;;;1.17;0.43;;;;;;;9.61;100.00;98881.00;5038422;28;20214;-72
2023/04/01 03:24:49;;;;;;;1.33;0.63;;;;;;;9.64;100.00;98879.25;5029922;28;20222;-72
2023/04/01 03:27:15;;;;;;;0.97;0.43;;;;;;;9.64;100.00;98885.25;5035047;28;20199;-72
2023/04/01 03:29:40;;;;;;;0.70;0.30;;;;;;;9.59;100.00;98890.53;5030758;28;20573;-71
2023/04/01 03:32:05;;;;;;;1.00;0.60;;;;;;;9.60;100.00;98896.56;5034700;28;20211;-73
2023/04/01 03:34:31;;;;;;;0.83;0.40;;;;;;;9.60;100.00;98896.56;5038610;28;20187;-73
2023/04/01 03:36:57;;;;;;;1.07;0.40;;;;;;;9.66;100.00;98885.22;5036415;28;20898;-72
2023/04/01 03:39:22;;;;;;;2.40;0.70;;;;;;;9.67;100.00;98877.41;5030937;28;20274;-72
2023/04/01 03:41:48;;;;;;;2.57;0.77;;;;;;;9.65;100.00;98879.19;5037481;28;20205;-72
2023/04/01 03:44:14;;;;;;;1.73;0.83;;;;;;;9.63;100.00;98888.72;5033784;28;20547;-73
2023/04/01 03:46:40;;;;;;;1.57;0.70;;;;;;;9.69;100.00;98870.47;5031656;28;20183;-73
2023/04/01 03:49:12;;;;;;;1.73;0.80;;;;;;;9.67;100.00;98877.41;5039848;28;20233;-73
2023/04/01 03:51:39;;;;;;;2.60;0.80;;;;;;;9.68;100.00;98871.34;5034265;28;20185;-73
2023/04/01 03:54:05;;;;;;;2.30;0.73;;;;;;;9.71;100.00;98870.41;5036867;28;20288;-73
2023/04/01 03:56:30;;;;;;;2.50;1.00;;;;;;;9.72;100.00;98879.84;5034960;28;20188;-72
2023/04/01 03:58:55;;;;;;;1.67;0.77;;;;;;;9.77;100.00;98884.00;5036985;28;20180;-73
2023/04/01 04:01:21;;;;;;;1.90;0.73;;;;;;;9.73;100.00;98881.56;5033407;28;20279;-73
2023/04/01 04:03:49;;;;;;;1.87;0.93;;;;;;;9.73;100.00;98878.97;5051826;28;20513;-73
2023/04/01 04:06:16;;;;;;;3.60;0.90;;;;;;;9.71;100.00;98883.34;5033227;28;20187;-72
2023/04/01 04:08:42;;;;;;;2.10;0.93;;;;;;;9.74;100.00;98868.63;5030392;28;20195;-73
2023/04/01 04:11:07;;;;;;;2.47;0.90;;;;;;;9.76;100.00;98876.31;5037815;28;20561;-73
2023/04/01 04:13:33;;;;;;;2.03;0.90;;;;;;;9.76;100.00;98871.97;5038637;28;20212;-72
2023/04/01 04:15:58;;;;;;;1.83;0.80;;;;;;;9.77;100.00;98865.91;5039440;28;20179;-72
2023/04/01 04:18:24;;;;;;;3.50;1.27;;;;;;;9.78;100.00;98871.94;5037601;28;20196;-74
2023/04/01 04:20:50;;;;;;;2.20;1.27;;;;;;;9.79;100.00;98881.41;5036870;28;20190;-72
2023/04/01 04:23:16;;;;;;;2.37;1.13;;;;;;;9.82;100.00;98878.72;5036324;28;20223;-72
2023/04/01 04:25:52;;;;;;;1.90;0.90;;;;;;;9.80;100.00;98872.75;5035257;28;20207;-73
2023/04/01 04:28:17;;;;;;;3.27;1.17;;;;;;;9.81;100.00;98868.41;5036139;28;20203;-72
2023/04/01 04:30:42;;;;;;;4.77;1.90;;;;;;;9.82;100.00;98870.97;5036506;28;20193;-72
2023/04/01 04:33:08;;;;;;;3.73;1.23;;;;;;;9.85;100.00;98864.88;5043541;28;20288;-73
2023/04/01 04:35:33;;;;;;;2.47;1.30;;;;;;;9.85;100.00;98857.94;5036549;28;20195;-73
2023/04/01 04:37:58;;;;;;;3.13;1.17;;;;;;;9.87;100.00;98860.50;5029568;28;20764;-74
2023/04/01 04:40:24;;;;;;;2.73;1.37;;;;;;;9.84;100.00;98858.00;5030757;28;20196;-72
2023/04/01 04:42:49;;;;;;;3.67;1.20;;;;;;;9.84;100.00;98861.41;5031005;28;20271;-73
2023/04/01 04:45:14;;;;;;;2.80;1.30;;;;;;;9.85;100.00;98855.34;5032335;28;20205;-72
2023/04/01 04:47:40;;;;;;;3.30;1.00;;;;;;;9.85;100.00;98847.59;5033617;28;20858;-72
2023/04/01 04:50:06;;;;;;;3.40;1.10;;;;;;;9.84;100.00;98851.09;5047662;28;20203;-72
2023/04/01 04:52:31;;;;;;;2.17;1.03;;;;;;;9.86;100.00;98836.38;5045441;28;20335;-72
2023/04/01 04:54:56;;;;;;;2.17;0.97;;;;;;;9.84;100.00;98845.09;5031117;28;20216;-73
2023/04/01 04:57:22;;;;;;;1.97;0.87;;;;;;;9.82;100.00;98841.69;5032168;28;20203;-73
2023/04/01 04:59:47;;;;;;;2.07;0.83;;;;;;;9.80;100.00;98834.00;5034503;28;20191;-73
2023/04/01 05:02:12;;;;;;;2.27;0.80;;;;;;;9.80;100.00;98843.47;5033996;28;20268;-72
2023/04/01 05:04:38;;;;;;;2.70;0.90;;;;;;;9.76;100.00;98846.13;5033242;28;20286;-73
2023/04/01 05:07:03;;;;;;;1.60;0.60;;;;;;;9.77;100.00;98840.09;5033839;28;20684;-71
2023/04/01 05:09:28;;;;;;;1.33;0.50;;;;;;;9.79;99.47;98842.63;5032249;28;20203;-72
2023/04/01 05:11:54;;;;;;;0.90;0.50;;;;;;;9.78;99.35;98840.94;5033939;28;20211;-72
2023/04/01 05:14:19;;;;;;;1.23;0.70;;;;;;;9.77;99.21;98837.50;5037720;28;20187;-73
2023/04/01 05:16:44;;;;;;;1.20;0.80;;;;;;;9.80;99.17;98846.06;5035509;28;20510;-72
2023/04/01 05:19:10;;;;;;;1.63;0.60;;;;;;;9.82;99.96;98841.69;5037441;28;20329;-72
2023/04/01 05:21:35;;;;;;;1.00;0.63;;;;;;;9.85;99.33;98846.78;5035899;28;20743;-73
2023/04/01 05:24:00;;;;;;;1.87;0.63;;;;;;;9.82;99.37;98826.19;5036047;28;20210;-72
2023/04/01 05:26:26;;;;;;;2.30;0.60;;;;;;;9.76;99.91;98842.72;5036362;28;20322;-72
2023/04/01 05:28:51;;;;;;;1.10;0.60;;;;;;;9.75;100.00;98838.44;5034997;28;20613;-73
2023/04/01 05:31:16;;;;;;;1.17;0.50;;;;;;;9.79;99.99;98842.63;5041836;28;20391;-72
2023/04/01 05:33:41;;;;;;;1.40;0.43;;;;;;;9.76;100.00;98845.31;5035012;28;20307;-73
2023/04/01 05:36:11;;;;;;;1.67;0.60;;;;;;;9.76;100.00;98838.38;5037134;28;20255;-72
2023/04/01 05:38:37;;;;;;;2.60;1.00;;;;;;;9.75;100.00;98847.06;5041114;28;20194;-73
2023/04/01 05:41:03;;;;;;;1.10;0.60;;;;;;;9.76;100.00;98853.88;5030099;28;20229;-73
2023/04/01 05:43:29;;;;;;;1.73;0.70;;;;;;;9.77;100.00;98845.25;5040237;28;20203;-73
2023/04/01 05:45:55;;;;;;;1.50;0.87;;;;;;;9.77;100.00;98842.66;5040798;28;20214;-72
2023/04/01 05:48:20;;;;;;;2.23;0.83;;;;;;;9.76;100.00;98840.97;5039828;28;20204;-73
2023/04/01 05:50:45;;;;;;;2.60;0.70;;;;;;;9.74;100.00;98842.78;5047907;28;20254;-72
2023/04/01 05:53:11;;;;;;;1.90;0.80;;;;;;;9.77;100.00;98841.84;5043005;28;20574;-72
2023/04/01 05:55:36;;;;;;;1.83;0.80;;;;;;;9.71;100.00;98840.28;5042910;28;20225;-74
2023/04/01 05:58:02;;;;;;;1.43;0.70;;;;;;;9.71;100.00;98839.41;5042883;28;20190;-73
2023/04/01 06:00:27;;;;;;;1.60;0.87;;;;;;;9.67;100.00;98832.66;5037756;28;20237;-72
2023/04/01 06:02:52;;;;;;;2.00;0.80;;;;;;;9.67;100.00;98835.25;5037623;28;20228;-74
2023/04/01 06:05:21;;;;;;;1.27;0.70;;;;;;;9.65;100.00;98837.03;5041530;28;20225;-72
2023/04/01 06:07:47;;;;;;;1.73;0.77;;;;;;;9.63;100.00;98837.03;5032809;28;20191;-73
2023/04/01 06:10:16;;;;;;;2.70;0.90;;;;;;;9.62;100.00;98832.78;5036810;28;20300;-73
2023/04/01 06:12:51;;;;;;;2.00;1.07;;;;;;;9.60;100.00;98832.81;5034637;28;20210;-72
2023/04/01 06:15:25;;;;;;;1.73;0.80;;;;;;;9.59;100.00;98828.56;5032770;28;20194;-73
2023/04/01 06:18:28;;;;;;;1.50;0.90;;;;;;;9.63;100.00;98846.56;5033798;28;20189;-72
2023/04/01 06:20:53;;;;;;;2.40;0.90;;;;;;;9.60;100.00;98837.16;5038757;28;20199;-72
2023/04/01 06:23:18;;;;;;;1.50;0.73;;;;;;;9.65;100.00;98842.19;5028998;28;20233;-72
2023/04/01 06:26:08;;;;;;;1.93;0.80;;;;;;;9.70;100.00;98846.34;5036746;28;20780;-72
2023/04/01 06:28:39;;;;;;;1.83;0.70;;;;;;;9.75;100.00;98848.78;5042646;28;20233;-72
2023/04/01 06:31:41;;;;;;;1.93;0.80;;;;;;;9.82;100.00;98854.63;5041255;28;20793;-72
2023/04/01 06:34:28;;;;;;;2.00;0.77;;;;;;;9.82;100.00;98855.47;5042390;28;20202;-72
2023/04/01 06:37:15;;;;;;;2.63;0.90;;;;;;;9.87;100.00;98858.75;5045740;28;20195;-72
2023/04/01 06:40:08;;;;;;;1.93;0.90;;;;;;;9.91;100.00;98860.38;5046280;28;20599;-72
2023/04/01 06:42:47;;;;;;;3.23;1.07;;;;;;;9.97;100.00;98855.91;5063938;28;20211;-71
2023/04/01 06:45:16;;;;;;;1.87;1.07;;;;;;;9.99;100.00;98860.13;5049961;28;20253;-72
2023/04/01 06:48:20;;;;;;;2.43;1.07;;;;;;;10.05;100.00;98872.91;5046138;28;20194;-71
2023/04/01 06:51:00;;;;;;;2.20;1.10;;;;;;;10.12;100.00;98868.38;5033553;28;20190;-72
2023/04/01 06:53:42;;;;;;;2.77;0.90;;;;;;;10.20;100.00;98860.41;5037654;28;20253;-72
2023/04/01 06:56:15;;;;;;;2.27;1.30;;;;;;;10.30;100.00;98860.94;5051764;28;20228;-72
2023/04/01 06:58:55;;;;;;;2.33;0.70;;;;;;;10.40;100.00;98862.41;5065973;28;20221;-71
2023/04/01 07:01:30;;;;;;;2.83;1.10;;;;;;;10.48;100.00;98870.75;5053192;28;20191;-72
2023/04/01 07:04:04;;;;;;;2.40;1.30;;;;;;;10.51;100.00;98856.91;5041758;28;20216;-72
2023/04/01 07:06:46;;;;;;;2.57;1.20;;;;;;;10.55;100.00;98863.63;5035750;28;20592;-72
2023/04/01 07:09:18;;;;;;;2.33;0.80;;;;;;;10.61;100.00;98865.19;5039334;28;20196;-71
2023/04/01 07:11:45;;;;;;;2.00;1.07;;;;;;;10.66;100.00;98868.47;5038335;28;20193;-73
2023/04/01 07:14:28;;;;;;;2.63;1.30;;;;;;;10.73;100.00;98875.16;5042648;28;20184;-71
2023/04/01 07:17:02;;;;;;;2.50;1.03;;;;;;;10.76;100.00;98864.69;5032870;28;20186;-73
2023/04/01 07:19:40;;;;;;;3.00;1.20;;;;;;;10.77;100.00;98873.31;5031832;28;20243;-71
2023/04/01 07:22:16;;;;;;;3.17;1.00;;;;;;;10.81;100.00;98877.50;5040498;28;20274;-72
2023/04/01 07:24:45;;;;;;;2.80;0.97;;;;;;;10.76;100.00;98879.38;5034882;28;20579;-71
2023/04/01 07:27:12;;;;;;;3.90;1.17;;;;;;;10.71;100.00;98882.13;5048151;28;20210;-72
2023/04/01 07:29:38;;;;;;;3.57;1.30;;;;;;;10.71;100.00;98882.13;5034728;28;20281;-71
2023/04/01 07:32:15;;;;;;;2.43;1.20;;;;;;;10.74;100.00;98891.53;5041379;28;20296;-72
2023/04/01 07:35:00;;;;;;;2.87;1.30;;;;;;;10.75;100.00;98888.88;5038883;28;20653;-71
2023/04/01 07:37:34;;;;;;;4.53;1.23;;;;;;;10.76;100.00;98894.91;5037699;28;20216;-73
2023/04/01 07:40:14;;;;;;;2.67;1.40;;;;;;;10.67;100.00;98899.47;5037465;28;20216;-73
2023/04/01 07:43:12;;;;;;;5.27;1.73;;;;;;;10.54;100.00;98912.84;5035500;28;20212;-73
2023/04/01 07:46:09;;;;;;;4.50;1.53;;;;;;;10.37;100.00;98916.75;5034026;28;20910;-72
2023/04/01 07:48:44;;;;;;;2.80;1.60;;;;;;;10.23;100.00;98904.22;5033437;28;20199;-75
2023/04/01 07:51:38;;;;;;;2.97;1.33;;;;;;;10.12;100.00;98896.81;5028884;28;20243;-75
2023/04/01 07:54:23;;;;;;;3.80;1.70;;;;;;;10.02;100.00;98898.81;5026591;28;20218;-74
2023/04/01 07:57:05;;;;;;;3.30;1.30;;;;;;;10.00;100.00;98897.16;5039365;28;20187;-75
2023/04/01 07:59:46;;;;;;;3.77;1.60;;;;;;;10.03;100.00;98885.00;5030443;28;20887;-73
2023/04/01 08:02:34;;;;;;;2.97;1.50;;;;;;;10.07;100.00;98890.94;5030863;28;20214;-74
2023/04/01 08:05:11;;;;;;;3.63;1.33;;;;;;;10.14;100.00;98883.84;5027103;28;20306;-74
2023/04/01 08:07:41;;;;;;;4.30;1.53;;;;;;;10.22;100.00;98894.78;5038566;28;20293;-76
2023/04/01 08:10:21;;;;;;;3.27;1.57;;;;;;;10.40;100.00;98888.25;5032203;28;20203;-76
2023/04/01 08:13:05;;;;;;;2.33;1.00;;;;;;;10.63;100.00;98882.38;5034301;28;20235;-72
2023/04/01 08:15:45;;;;;;;3.33;1.20;;;;;;;10.85;100.00;98886.00;5034488;28;20186;-74
2023/04/01 08:18:29;;;;;;;3.47;1.40;;;;;;;11.07;100.00;98886.97;5044188;28;20204;-74
2023/04/01 08:21:04;;;;;;;3.97;1.50;;;;;;;11.27;100.00;98894.06;5038031;28;20244;-75
2023/04/01 08:23:37;;;;;;;3.47;1.10;;;;;;;11.49;100.00;98895.09;5034323;28;20714;-73
2023/04/01 08:26:10;;;;;;;2.33;1.13;;;;;;;11.72;100.00;98913.25;5037601;28;20833;-75
2023/04/01 08:28:38;;;;;;;3.87;1.77;;;;;;;11.93;100.00;98904.72;5046953;28;20249;-73
2023/04/01 08:31:10;;;;;;;3.10;2.60;;;;;;;11.92;100.00;98909.09;5030167;28;20200;-74
2023/04/01 08:33:38;;;;;;;5.30;4.27;;;;;;;11.93;100.00;98915.09;5036734;28;20210;-74
2023/04/01 08:36:12;;;;;;;5.83;4.67;;;;;;;11.89;100.00;98906.59;5031507;28;20197;-76
2023/04/01 08:38:44;;;;;;;5.83;5.23;;;;;;;11.76;100.00;98921.75;5035243;28;20268;-74
2023/04/01 08:41:34;;;;;;;6.47;4.60;;;;;;;11.61;100.00;98925.75;5032549;28;20208;-74
2023/04/01 08:44:19;;;;;;;10.40;9.40;;;;;;;11.49;100.00;98926.16;5062739;28;20192;-74
2023/04/01 08:46:50;;;;;;;13.10;11.90;;;;;;;11.40;100.00;98927.34;5035122;28;20192;-73
2023/04/01 08:49:53;;;;;;;9.07;8.27;;;;;;;11.38;100.00;98929.97;5041255;28;20187;-74
2023/04/01 08:52:18;;;;;;;13.10;11.90;;;;;;;11.37;100.00;98925.66;5050103;28;20198;-73
2023/04/01 08:54:47;;;;;;;6.57;5.83;;;;;;;11.42;100.00;98934.13;5056408;28;20718;-75
2023/04/01 08:57:21;;;;;;;9.47;6.47;;;;;;;11.46;100.00;98921.91;5050186;28;20193;-73
2023/04/01 09:00:03;;;;;;;11.50;10.53;;;;;;;11.54;100.00;98919.06;5038268;28;20194;-73
2023/04/01 09:02:59;;;;;;;9.40;8.50;;;;;;;11.60;100.00;98924.03;5039199;28;20692;-73
2023/04/01 09:05:40;;;;;;;4.77;4.27;;;;;;;11.65;100.00;98929.06;5039226;28;20212;-74
2023/04/01 09:08:05;;;;;;;5.40;4.40;;;;;;;11.69;100.00;98928.06;5038730;28;20207;-73
2023/04/01 09:10:30;;;;;;;4.27;3.80;;;;;;;11.67;100.00;98928.09;5031496;28;20188;-73
2023/04/01 09:12:58;;;;;;;3.23;2.20;;;;;;;11.63;100.00;98926.53;5045910;28;20306;-73
2023/04/01 09:16:05;;;;;;;2.80;2.60;;;;;;;11.58;100.00;98926.66;5039942;28;20648;-73
2023/04/01 09:18:49;;;;;;;3.53;2.83;;;;;;;11.56;100.00;98925.91;5039663;28;20184;-73
2023/04/01 09:21:17;;;;;;;3.20;2.33;;;;;;;11.64;100.00;98930.81;5040156;28;20260;-73
2023/04/01 09:24:04;;;;;;;4.23;2.77;;;;;;;11.78;100.00;98932.06;5036999;28;20204;-73
2023/04/01 09:27:18;;;;;;;2.07;1.90;;;;;;;11.89;100.00;98928.16;5040798;28;20322;-74
2023/04/01 09:30:29;;;;;;;1.80;1.70;;;;;;;12.05;100.00;98940.59;5035222;28;20202;-73
2023/04/01 09:33:24;;;;;;;2.10;0.93;;;;;;;12.12;100.00;98923.06;5034502;28;20224;-73
2023/04/01 09:36:11;;;;;;;2.33;1.70;;;;;;;12.07;100.00;98925.00;5033779;28;20300;-73
2023/04/01 09:38:58;;;;;;;4.07;3.77;;;;;;;11.99;100.00;98927.88;5036029;28;20190;-74
2023/04/01 09:41:47;;;;;;;2.43;2.23;;;;;;;11.87;100.00;98929.97;5040603;28;20288;-73
2023/04/01 09:44:41;;;;;;;4.07;3.77;;;;;;;11.86;100.00;98940.41;5040117;28;20322;-74
2023/04/01 09:47:23;;;;;;;4.20;3.80;;;;;;;11.89;100.00;98935.13;5038093;28;20208;-73
2023/04/01 09:50:06;;;;;;;3.57;1.63;;;;;;;11.97;100.00;98937.44;5041304;28;20199;-72
2023/04/01 09:52:44;;;;;;;2.53;2.10;;;;;;;12.02;100.00;98933.78;5034549;28;20217;-73
2023/04/01 09:55:36;;;;;;;2.10;1.80;;;;;;;12.02;100.00;98940.75;5036653;28;20191;-73
2023/04/01 09:58:10;;;;;;;2.47;1.90;;;;;;;11.94;100.00;98950.50;5026609;28;20275;-73
2023/04/01 10:01:00;;;;;;;5.20;4.70;;;;;;;11.96;100.00;98938.31;5051980;28;20222;-73
2023/04/01 10:03:51;;;;;;;2.67;2.47;;;;;;;11.96;100.00;98952.13;5038367;28;20301;-72
2023/04/01 10:07:08;;;;;;;3.23;2.90;;;;;;;11.99;100.00;98940.84;5041860;28;20282;-73
2023/04/01 10:10:04;;;;;;;2.23;1.77;;;;;;;12.16;100.00;98943.69;5029498;28;20200;-74
2023/04/01 10:12:33;;;;;;;2.07;1.50;;;;;;;12.41;100.00;98947.94;5037163;28;20217;-74
2023/04/01 10:15:10;;;;;;;2.30;1.90;;;;;;;12.65;100.00;98953.06;5034489;28;20275;-73
2023/04/01 10:17:50;;;;;;;2.13;1.17;;;;;;;12.80;100.00;98954.22;5029474;28;20769;-75
2023/04/01 10:20:46;;;;;;;1.40;0.83;;;;;;;12.90;100.00;98949.53;5035016;28;20681;-75
2023/04/01 10:23:42;;;;;;;1.30;0.70;;;;;;;13.00;100.00;98950.00;5037134;28;20371;-75
2023/04/01 10:26:19;;;;;;;1.97;0.93;;;;;;;13.02;100.00;98956.81;5038855;28;20209;-74
2023/04/01 10:28:54;;;;;;;1.37;0.90;;;;;;;13.08;100.00;98956.53;5039368;28;20194;-74
2023/04/01 10:31:35;;;;;;;1.20;0.70;;;;;;;13.09;100.00;98954.81;5040173;28;20202;-74
2023/04/01 10:34:16;;;;;;;1.50;0.77;;;;;;;13.06;100.00;98958.38;5056098;28;20171;-75
2023/04/01 10:36:51;;;;;;;1.23;0.80;;;;;;;13.03;100.00;98948.13;5055707;28;20185;-73
2023/04/01 10:40:00;;;;;;;0.90;0.63;;;;;;;12.95;100.00;98950.16;5049626;28;20679;-74
2023/04/01 10:42:53;;;;;;;1.63;0.87;;;;;;;12.91;100.00;98954.63;5045361;28;20222;-74
2023/04/01 10:45:57;;;;;;;1.33;0.70;;;;;;;12.83;100.00;98961.91;5038808;28;20268;-73
2023/04/01 10:48:31;;;;;;;2.30;0.80;;;;;;;12.72;100.00;98959.72;5031794;28;20182;-74
2023/04/01 10:51:21;;;;;;;2.17;0.93;;;;;;;12.68;100.00;98967.69;5038442;28;20189;-72
2023/04/01 10:54:08;;;;;;;1.27;0.60;;;;;;;12.55;100.00;98972.50;5051641;28;20208;-72
2023/04/01 10:56:46;;;;;;;1.47;0.70;;;;;;;12.43;100.00;98971.22;5043087;28;20185;-72
2023/04/01 10:59:21;;;;;;;2.53;1.40;;;;;;;12.40;100.00;98974.78;5034845;28;20191;-73
2023/04/01 11:01:55;;;;;;;1.30;0.87;;;;;;;12.38;100.00;98965.38;5031620;28;20953;-73
2023/04/01 11:04:47;;;;;;;1.90;1.07;;;;;;;12.30;100.00;98973.44;5035407;28;20232;-72
2023/04/01 11:07:30;;;;;;;1.53;0.87;;;;;;;12.24;100.00;98971.06;5037198;28;20189;-73
2023/04/01 11:10:10;;;;;;;2.13;1.00;;;;;;;12.24;100.00;98971.91;5033843;28;20208;-73
2023/04/01 11:13:00;;;;;;;2.40;1.13;;;;;;;12.27;100.00;98984.75;5033821;28;20213;-75
2023/04/01 11:16:03;;;;;;;1.13;0.77;;;;;;;12.37;100.00;98987.03;5030694;28;20183;-74
2023/04/01 11:18:37;;;;;;;1.97;1.03;;;;;;;12.52;100.00;98983.84;5037433;28;20182;-74
2023/04/01 11:21:34;;;;;;;2.50;1.03;;;;;;;12.65;100.00;98989.41;5036005;28;20208;-73
2023/04/01 11:24:24;;;;;;;1.87;1.10;;;;;;;12.72;100.00;98984.81;5033245;28;20193;-73
2023/04/01 11:27:01;;;;;;;1.63;1.10;;;;;;;12.81;100.00;98977.53;5034668;28;20184;-73
2023/04/01 11:29:40;;;;;;;1.93;0.90;;;;;;;12.91;100.00;98982.38;5036940;28;20214;-72
2023/04/01 11:32:33;;;;;;;1.70;0.87;;;;;;;12.98;100.00;98982.97;5034364;28;20212;-73
2023/04/01 11:35:21;;;;;;;1.83;0.90;;;;;;;13.02;100.00;98990.56;5037391;28;20218;-74
2023/04/01 11:38:04;;;;;;;1.73;0.90;;;;;;;13.04;100.00;98987.91;5032174;28;20439;-72
2023/04/01 11:40:37;;;;;;;1.23;0.90;;;;;;;13.05;100.00;98987.00;5057186;28;20198;-74
2023/04/01 11:43:13;;;;;;;0.93;0.73;;;;;;;12.99;100.00;98992.44;5039643;28;20698;-72
2023/04/01 11:45:49;;;;;;;1.23;0.83;;;;;;;12.93;100.00;98990.94;5038330;28;20203;-73
2023/04/01 11:48:43;;;;;;;1.50;0.87;;;;;;;12.85;100.00;98998.19;5033649;28;20189;-72
2023/04/01 11:51:30;;;;;;;0.83;0.63;;;;;;;12.85;100.00;98999.03;5036153;28;20269;-73
2023/04/01 11:54:10;;;;;;;1.23;0.80;;;;;;;12.90;100.00;99001.44;5034107;28;20218;-73
2023/04/01 11:56:50;;;;;;;1.00;0.70;;;;;;;12.94;100.00;99001.25;5032601;28;20640;-73
2023/04/01 11:59:15;;;;;;;2.73;1.10;;;;;;;12.95;100.00;99005.56;5035851;28;20200;-73
2023/04/01 12:02:15;;;;;;;1.77;0.93;;;;;;;12.94;100.00;99003.84;5046629;28;20732;-72
2023/04/01 12:04:58;;;;;;;1.70;0.90;;;;;;;12.92;100.00;99013.44;5039645;28;20203;-72